createdAt,value
2022-09-16T00:01:32.583Z,14.28
2022-09-16T00:04:01.210Z,14.25
2022-09-16T00:06:31.775Z,14.27
2022-09-16T00:09:02.495Z,14.25
2022-09-16T00:11:35.381Z,14.24
2022-09-16T00:14:05.144Z,14.20
2022-09-16T00:16:35.493Z,14.20
2022-09-16T00:19:04.120Z,14.15
2022-09-16T00:21:33.356Z,14.07
2022-09-16T00:24:01.978Z,14.08
2022-09-16T00:26:31.065Z,14.08
2022-09-16T00:28:59.648Z,14.04
2022-09-16T00:31:28.298Z,14.03
2022-09-16T00:33:58.283Z,14.00
2022-09-16T00:36:26.916Z,13.91
2022-09-16T00:38:56.387Z,13.90
2022-09-16T00:41:33.101Z,13.84
2022-09-16T00:44:05.495Z,13.82
2022-09-16T00:46:39.963Z,13.82
2022-09-16T00:49:19.925Z,13.81
2022-09-16T00:51:54.507Z,13.82
2022-09-16T00:54:23.428Z,13.82
2022-09-16T00:56:56.474Z,13.75
2022-09-16T00:59:29.795Z,13.69
2022-09-16T01:02:06.316Z,13.67
2022-09-16T01:04:43.858Z,13.62
2022-09-16T01:07:13.522Z,13.60
2022-09-16T01:09:42.254Z,13.62
2022-09-16T01:12:10.858Z,13.61
2022-09-16T01:14:55.049Z,13.60
2022-09-16T01:17:40.559Z,13.47
2022-09-16T01:20:48.253Z,13.43
2022-09-16T01:24:04.221Z,13.39
2022-09-16T01:27:17.526Z,13.39
2022-09-16T01:30:21.337Z,13.39
2022-09-16T01:33:05.096Z,13.42
2022-09-16T01:35:55.941Z,13.44
2022-09-16T01:38:46.327Z,13.42
2022-09-16T01:41:29.360Z,13.41
2022-09-16T01:44:07.802Z,13.33
2022-09-16T01:46:48.433Z,13.35
2022-09-16T01:49:29.933Z,13.37
2022-09-16T01:52:12.182Z,13.39
2022-09-16T01:54:46.967Z,13.47
2022-09-16T01:57:22.739Z,13.45
2022-09-16T02:00:00.372Z,13.52
2022-09-16T02:02:37.405Z,13.54
2022-09-16T02:05:13.250Z,13.55
2022-09-16T02:07:48.555Z,13.59
2022-09-16T02:10:26.051Z,13.64
2022-09-16T02:13:02.247Z,13.67
2022-09-16T02:15:35.191Z,13.70
2022-09-16T02:18:12.701Z,13.69
2022-09-16T02:20:48.392Z,13.67
2022-09-16T02:23:22.466Z,13.62
2022-09-16T02:25:55.434Z,13.61
2022-09-16T02:28:32.145Z,13.60
2022-09-16T02:31:07.809Z,13.61
2022-09-16T02:33:45.376Z,13.52
2022-09-16T02:36:21.016Z,13.52
2022-09-16T02:38:56.887Z,13.54
2022-09-16T02:41:25.667Z,13.51
2022-09-16T02:43:54.713Z,13.51
2022-09-16T02:46:39.324Z,13.57
2022-09-16T02:49:19.702Z,13.61
2022-09-16T02:51:59.858Z,13.66
2022-09-16T02:54:40.026Z,13.68
2022-09-16T02:57:10.237Z,13.72
2022-09-16T02:59:39.809Z,13.73
2022-09-16T03:02:08.771Z,13.74
2022-09-16T03:04:37.465Z,13.78
2022-09-16T03:07:11.834Z,13.77
2022-09-16T03:09:45.646Z,13.77
2022-09-16T03:12:38.156Z,13.71
2022-09-16T03:15:48.945Z,13.67
2022-09-16T03:18:38.464Z,13.60
2022-09-16T03:21:18.953Z,13.55
2022-09-16T03:23:58.803Z,13.52
2022-09-16T03:26:42.512Z,13.46
2022-09-16T03:29:20.669Z,13.47
2022-09-16T03:31:59.117Z,13.46
2022-09-16T03:34:35.471Z,13.42
2022-09-16T03:37:11.209Z,13.43
2022-09-16T03:39:43.454Z,13.35
2022-09-16T03:42:13.767Z,13.35
2022-09-16T03:44:43.113Z,13.32
2022-09-16T03:47:11.960Z,13.32
2022-09-16T03:49:40.697Z,13.32
2022-09-16T03:52:09.816Z,13.31
2022-09-16T03:54:40.829Z,13.29
2022-09-16T03:57:10.717Z,13.30
2022-09-16T03:59:39.351Z,13.29
2022-09-16T04:02:08.059Z,13.29
2022-09-16T04:04:36.555Z,13.27
2022-09-16T04:07:05.328Z,13.28
2022-09-16T04:09:34.030Z,13.28
2022-09-16T04:12:05.575Z,13.28
2022-09-16T04:14:34.425Z,13.27
2022-09-16T04:17:03.686Z,13.22
2022-09-16T04:19:33.182Z,13.26
2022-09-16T04:22:01.782Z,13.22
2022-09-16T04:24:31.016Z,13.20
2022-09-16T04:26:59.816Z,13.22
2022-09-16T04:29:29.924Z,13.19
2022-09-16T04:31:58.679Z,13.20
2022-09-16T04:34:27.472Z,13.24
2022-09-16T04:36:56.285Z,13.28
2022-09-16T04:39:24.945Z,13.28
2022-09-16T04:41:53.618Z,13.27
2022-09-16T04:44:22.351Z,13.28
2022-09-16T04:46:52.678Z,13.29
2022-09-16T04:49:21.393Z,13.25
2022-09-16T04:51:50.710Z,13.26
2022-09-16T04:54:19.737Z,13.28
2022-09-16T04:56:48.901Z,13.28
2022-09-16T04:59:17.531Z,13.29
2022-09-16T05:01:46.299Z,13.31
2022-09-16T05:04:16.330Z,13.25
2022-09-16T05:06:45.057Z,13.25
2022-09-16T05:09:14.715Z,13.26
2022-09-16T05:11:43.423Z,13.24
2022-09-16T05:14:18.336Z,13.28
2022-09-16T05:16:47.721Z,13.28
2022-09-16T05:19:17.882Z,13.29
2022-09-16T05:21:47.226Z,13.29
2022-09-16T05:24:16.232Z,13.32
2022-09-16T05:26:45.531Z,13.33
2022-09-16T05:29:20.268Z,13.35
2022-09-16T05:31:49.309Z,13.38
2022-09-16T05:34:22.045Z,13.42
2022-09-16T05:36:54.369Z,13.42
2022-09-16T05:39:25.220Z,13.44
2022-09-16T05:41:57.416Z,13.43
2022-09-16T05:44:27.314Z,13.47
2022-09-16T05:46:56.495Z,13.44
2022-09-16T05:49:26.811Z,13.48
2022-09-16T05:51:55.811Z,13.52
2022-09-16T05:54:25.506Z,13.51
2022-09-16T05:56:54.332Z,13.52
2022-09-16T05:59:24.135Z,13.50
2022-09-16T06:01:52.868Z,13.53
2022-09-16T06:04:21.574Z,13.56
2022-09-16T06:06:51.525Z,13.54
2022-09-16T06:09:22.625Z,13.48
2022-09-16T06:11:59.388Z,13.55
2022-09-16T06:14:31.034Z,13.59
2022-09-16T06:16:59.846Z,13.61
2022-09-16T06:19:28.719Z,13.61
2022-09-16T06:21:58.792Z,13.62
2022-09-16T06:24:27.442Z,13.63
2022-09-16T06:26:56.113Z,13.63
2022-09-16T06:29:24.935Z,13.66
2022-09-16T06:31:53.616Z,13.66
2022-09-16T06:34:22.232Z,13.64
2022-09-16T06:36:50.837Z,13.69
2022-09-16T06:39:22.547Z,13.75
2022-09-16T06:41:51.955Z,13.64
2022-09-16T06:44:20.584Z,13.57
2022-09-16T06:46:49.196Z,13.59
2022-09-16T06:49:17.865Z,13.65
2022-09-16T06:51:46.598Z,13.62
2022-09-16T06:54:15.398Z,13.69
2022-09-16T06:56:45.407Z,13.75
2022-09-16T06:59:14.505Z,13.73
2022-09-16T07:01:43.608Z,13.90
2022-09-16T07:04:13.434Z,13.92
2022-09-16T07:07:08.161Z,13.91
2022-09-16T07:09:32.609Z,13.87
2022-09-16T07:12:03.749Z,13.87
2022-09-16T07:14:33.564Z,13.82
2022-09-16T07:17:03.161Z,13.96
2022-09-16T07:19:31.881Z,14.06
2022-09-16T07:22:00.464Z,13.96
2022-09-16T07:24:29.138Z,14.02
2022-09-16T07:26:57.717Z,14.03
2022-09-16T07:29:28.221Z,14.04
2022-09-16T07:31:56.779Z,14.07
2022-09-16T07:34:25.318Z,13.98
2022-09-16T07:36:53.993Z,14.11
2022-09-16T07:39:22.645Z,14.18
2022-09-16T07:41:51.244Z,14.09
2022-09-16T07:44:21.767Z,14.10
2022-09-16T07:46:51.849Z,14.18
2022-09-16T07:49:20.926Z,14.32
2022-09-16T07:51:49.734Z,14.31
2022-09-16T07:54:20.350Z,14.28
2022-09-16T07:56:49.407Z,14.29
2022-09-16T07:59:20.582Z,14.34
2022-09-16T08:01:52.009Z,14.45
2022-09-16T08:04:22.077Z,14.37
2022-09-16T08:06:51.097Z,14.40
2022-09-16T08:09:39.642Z,14.56
2022-09-16T08:12:10.974Z,14.39
2022-09-16T08:14:39.935Z,14.33
2022-09-16T08:17:10.000Z,14.37
2022-09-16T08:19:40.256Z,14.38
2022-09-16T08:22:09.019Z,14.48
2022-09-16T08:24:37.650Z,14.67
2022-09-16T08:27:06.415Z,14.93
2022-09-16T08:29:34.987Z,15.15
2022-09-16T08:32:04.136Z,15.03
2022-09-16T08:34:34.293Z,15.19
2022-09-16T08:37:03.399Z,15.41
2022-09-16T08:39:33.692Z,15.59
2022-09-16T08:42:37.254Z,15.47
2022-09-16T08:45:21.818Z,15.53
2022-09-16T08:48:04.251Z,15.63
2022-09-16T08:50:41.070Z,15.54
2022-09-16T08:53:17.597Z,15.35
2022-09-16T08:55:52.060Z,15.26
2022-09-16T08:58:24.265Z,15.15
2022-09-16T09:00:58.252Z,15.13
2022-09-16T09:03:38.786Z,15.22
2022-09-16T09:06:32.641Z,15.21
2022-09-16T09:09:13.421Z,15.09
2022-09-16T09:11:53.482Z,14.97
2022-09-16T09:14:41.351Z,14.99
2022-09-16T09:17:24.679Z,15.08
2022-09-16T09:20:09.014Z,15.07
2022-09-16T09:23:08.359Z,15.14
2022-09-16T09:25:48.312Z,15.08
2022-09-16T09:28:43.938Z,15.25
2022-09-16T09:31:23.753Z,15.19
2022-09-16T09:34:04.674Z,15.12
2022-09-16T09:37:00.757Z,15.14
2022-09-16T09:40:01.846Z,15.48
2022-09-16T09:42:37.361Z,15.59
2022-09-16T09:45:20.999Z,15.57
2022-09-16T09:47:57.362Z,16.08
2022-09-16T09:50:34.970Z,16.49
2022-09-16T09:53:18.445Z,16.72
2022-09-16T09:55:52.408Z,16.96
2022-09-16T09:58:35.114Z,17.02
2022-09-16T10:01:03.980Z,17.01
2022-09-16T10:03:33.334Z,16.96
2022-09-16T10:06:01.982Z,16.92
2022-09-16T10:08:39.457Z,17.01
2022-09-16T10:11:20.222Z,17.03
2022-09-16T10:13:55.542Z,17.12
2022-09-16T10:16:30.658Z,17.28
2022-09-16T10:19:05.768Z,17.12
2022-09-16T10:21:46.425Z,17.07
2022-09-16T10:24:41.079Z,16.93
2022-09-16T10:27:27.154Z,16.40
2022-09-16T10:30:16.438Z,16.11
2022-09-16T10:32:53.323Z,15.91
2022-09-16T10:35:26.119Z,15.42
2022-09-16T10:37:58.963Z,14.82
2022-09-16T10:40:28.631Z,14.90
2022-09-16T10:43:05.764Z,14.92
2022-09-16T10:45:39.838Z,14.93
2022-09-16T10:48:18.024Z,14.91
2022-09-16T10:50:56.023Z,14.97
2022-09-16T10:53:32.499Z,14.96
2022-09-16T10:56:03.728Z,15.36
2022-09-16T10:58:34.301Z,16.08
2022-09-16T11:01:21.643Z,16.84
2022-09-16T11:04:46.393Z,17.37
2022-09-16T11:07:33.304Z,17.61
2022-09-16T11:10:27.933Z,18.18
2022-09-16T11:13:45.064Z,18.23
2022-09-16T11:16:43.755Z,17.89
2022-09-16T11:19:26.672Z,17.27
2022-09-16T11:22:11.050Z,16.89
2022-09-16T11:25:41.822Z,16.61
2022-09-16T11:28:47.259Z,16.38
2022-09-16T11:31:32.441Z,16.35
2022-09-16T11:34:15.229Z,16.16
2022-09-16T11:37:02.980Z,16.29
2022-09-16T11:40:06.695Z,16.63
2022-09-16T11:42:40.943Z,16.94
2022-09-16T11:45:39.742Z,16.91
2022-09-16T11:48:42.641Z,16.83
2022-09-16T11:51:34.587Z,16.68
2022-09-16T11:54:26.006Z,17.17
2022-09-16T11:57:01.009Z,17.34
2022-09-16T11:59:38.778Z,17.36
2022-09-16T12:02:24.859Z,17.63
2022-09-16T12:05:04.363Z,17.60
2022-09-16T12:07:41.129Z,17.62
2022-09-16T12:10:23.017Z,17.77
2022-09-16T12:12:58.907Z,17.83
2022-09-16T12:15:37.479Z,17.74
2022-09-16T12:18:18.588Z,17.38
2022-09-16T12:20:54.535Z,17.19
2022-09-16T12:23:29.800Z,17.00
2022-09-16T12:26:09.568Z,16.94
2022-09-16T12:28:49.463Z,16.96
2022-09-16T12:31:28.781Z,17.09
2022-09-16T12:34:06.050Z,17.06
2022-09-16T12:36:43.648Z,16.97
2022-09-16T12:39:13.945Z,17.07
2022-09-16T12:42:20.189Z,17.15
2022-09-16T12:45:16.860Z,17.13
2022-09-16T12:48:10.036Z,17.18
2022-09-16T12:51:09.729Z,17.11
2022-09-16T12:54:16.880Z,17.07
2022-09-16T12:57:14.351Z,16.88
2022-09-16T13:00:14.171Z,16.76
2022-09-16T13:02:51.196Z,16.85
2022-09-16T13:05:32.398Z,16.76
2022-09-16T13:08:08.690Z,16.89
2022-09-16T13:10:57.793Z,17.05
2022-09-16T13:13:36.607Z,17.15
2022-09-16T13:16:09.271Z,17.17
2022-09-16T13:18:45.294Z,17.08
2022-09-16T13:21:29.129Z,17.06
2022-09-16T13:24:07.985Z,17.24
2022-09-16T13:26:42.323Z,17.42
2022-09-16T13:29:45.208Z,17.74
2022-09-16T13:32:28.847Z,17.83
2022-09-16T13:35:07.568Z,17.87
2022-09-16T13:37:36.773Z,17.97
2022-09-16T13:40:27.462Z,18.08
2022-09-16T13:43:15.347Z,17.84
2022-09-16T13:45:46.700Z,17.65
2022-09-16T13:48:19.703Z,17.40
2022-09-16T13:50:55.394Z,17.32
2022-09-16T13:53:32.055Z,17.18
2022-09-16T13:56:12.565Z,17.13
2022-09-16T13:58:58.544Z,17.19
2022-09-16T14:01:58.344Z,17.06
2022-09-16T14:04:56.990Z,17.00
2022-09-16T14:07:43.394Z,17.05
2022-09-16T14:10:22.213Z,16.96
2022-09-16T14:13:07.468Z,16.91
2022-09-16T14:15:42.237Z,16.84
2022-09-16T14:18:16.415Z,16.78
2022-09-16T14:21:03.490Z,16.66
2022-09-16T14:23:34.451Z,16.66
2022-09-16T14:26:13.667Z,16.62
2022-09-16T14:28:44.057Z,16.51
2022-09-16T14:31:20.254Z,16.43
2022-09-16T14:33:56.781Z,16.39
2022-09-16T14:36:29.108Z,16.39
2022-09-16T14:39:02.452Z,16.40
2022-09-16T14:41:37.745Z,16.29
2022-09-16T14:44:20.237Z,16.27
2022-09-16T14:47:00.259Z,16.24
2022-09-16T14:49:39.059Z,16.18
2022-09-16T14:52:21.831Z,16.12
2022-09-16T14:54:52.126Z,16.05
2022-09-16T14:57:24.158Z,16.02
2022-09-16T14:59:57.772Z,15.99
2022-09-16T15:02:32.559Z,16.00
2022-09-16T15:05:24.887Z,15.92
2022-09-16T15:08:13.754Z,15.95
2022-09-16T15:10:52.364Z,15.92
2022-09-16T15:13:25.584Z,15.86
2022-09-16T15:16:02.745Z,15.85
2022-09-16T15:18:35.378Z,15.86
2022-09-16T15:21:10.735Z,15.93
2022-09-16T15:23:42.480Z,15.85
2022-09-16T15:26:17.981Z,15.82
2022-09-16T15:28:59.390Z,15.81
2022-09-16T15:31:37.097Z,15.80
2022-09-16T15:34:24.898Z,15.71
2022-09-16T15:37:03.893Z,15.70
2022-09-16T15:39:35.272Z,15.69
2022-09-16T15:42:12.655Z,15.64
2022-09-16T15:44:50.146Z,15.54
2022-09-16T15:47:26.499Z,15.56
2022-09-16T15:50:02.570Z,15.59
2022-09-16T15:52:50.580Z,15.54
2022-09-16T15:55:33.082Z,15.50
2022-09-16T16:01:39.135Z,15.52
2022-09-16T16:04:13.499Z,15.46
2022-09-16T16:06:54.696Z,15.51
2022-09-16T16:09:45.204Z,15.40
2022-09-16T16:12:16.298Z,15.42
2022-09-16T16:14:47.155Z,15.38
2022-09-16T16:17:21.382Z,15.33
2022-09-16T16:19:52.940Z,15.34
2022-09-16T16:22:33.477Z,15.22
2022-09-16T16:25:11.478Z,15.31
2022-09-16T16:27:42.381Z,15.35
2022-09-16T16:30:16.921Z,15.35
2022-09-16T16:32:46.236Z,15.35
2022-09-16T16:36:14.645Z,15.38
2022-09-16T16:38:48.382Z,15.35
2022-09-16T16:41:44.806Z,15.33
2022-09-16T16:44:14.053Z,15.25
2022-09-16T16:46:46.672Z,15.23
2022-09-16T16:49:15.610Z,15.09
2022-09-16T16:51:52.164Z,15.02
2022-09-16T16:54:22.139Z,14.99
2022-09-16T16:56:51.457Z,14.95
2022-09-16T16:59:21.748Z,14.94
2022-09-16T17:01:56.096Z,14.91
2022-09-16T17:04:26.716Z,14.89
2022-09-16T17:07:21.441Z,14.85
2022-09-16T17:09:49.629Z,14.78
2022-09-16T17:12:48.793Z,14.71
2022-09-16T17:15:18.012Z,14.69
2022-09-16T17:22:41.351Z,14.52
2022-09-16T17:25:45.208Z,14.40
2022-09-16T17:28:15.441Z,14.34
2022-09-16T17:31:36.913Z,14.27
2022-09-16T17:38:49.699Z,14.03
2022-09-16T17:41:23.613Z,14.01
2022-09-16T17:43:57.170Z,14.00
2022-09-16T17:51:21.029Z,13.61
2022-09-16T17:53:51.891Z,13.69
2022-09-16T17:56:47.417Z,13.61
2022-09-16T17:59:21.207Z,13.49
2022-09-16T18:02:07.779Z,13.38
2022-09-16T18:04:52.920Z,13.44
2022-09-16T18:07:22.544Z,13.39
2022-09-16T18:09:52.706Z,13.33
2022-09-16T18:12:21.870Z,13.36
2022-09-16T18:14:50.585Z,13.28
2022-09-16T18:17:23.138Z,13.27
2022-09-16T18:19:52.759Z,13.26
2022-09-16T18:22:21.978Z,13.24
2022-09-16T18:24:52.556Z,13.23
2022-09-16T18:27:21.793Z,13.25
2022-09-16T18:29:51.491Z,13.16
2022-09-16T18:32:20.606Z,13.14
2022-09-16T18:34:50.206Z,13.19
2022-09-16T18:37:19.865Z,13.04
2022-09-16T18:39:49.999Z,13.01
2022-09-16T18:42:21.031Z,12.94
2022-09-16T18:44:50.460Z,12.88
2022-09-16T18:47:19.760Z,12.91
2022-09-16T18:49:49.091Z,12.79
2022-09-16T18:52:17.979Z,12.72
2022-09-16T18:54:47.122Z,12.65
2022-09-16T18:58:05.758Z,12.61
2022-09-16T19:00:36.250Z,12.71
2022-09-16T19:03:05.125Z,12.68
2022-09-16T19:05:33.875Z,12.65
2022-09-16T19:08:02.638Z,12.53
2022-09-16T19:10:31.832Z,12.48
2022-09-16T19:13:02.229Z,12.61
2022-09-16T19:15:31.026Z,12.67
2022-09-16T19:18:00.278Z,12.60
2022-09-16T19:20:29.210Z,12.54
2022-09-16T19:22:57.981Z,12.50
2022-09-16T19:25:27.054Z,12.48
2022-09-16T19:27:55.812Z,12.51
2022-09-16T19:30:26.511Z,12.48
2022-09-16T19:32:55.285Z,12.44
2022-09-16T19:35:28.649Z,12.35
2022-09-16T19:38:05.465Z,12.43
2022-09-16T19:40:43.193Z,12.44
2022-09-16T19:43:12.484Z,12.43
2022-09-16T19:45:42.847Z,12.42
2022-09-16T19:48:11.419Z,12.42
2022-09-16T19:50:45.806Z,12.48
2022-09-16T19:53:14.908Z,12.44
2022-09-16T19:55:44.056Z,12.48
2022-09-16T19:58:13.606Z,12.40
2022-09-16T20:01:12.316Z,12.39
2022-09-16T20:03:44.918Z,12.43
2022-09-16T20:06:17.704Z,12.46
2022-09-16T20:08:49.612Z,12.38
2022-09-16T20:11:24.965Z,12.35
2022-09-16T20:13:56.488Z,12.34
2022-09-16T20:16:30.949Z,12.29
2022-09-16T20:19:00.257Z,12.37
2022-09-16T20:21:31.191Z,12.19
2022-09-16T20:24:00.824Z,12.20
2022-09-16T20:26:31.331Z,12.19
2022-09-16T20:29:05.715Z,12.13
2022-09-16T20:31:38.898Z,12.23
2022-09-16T20:34:09.608Z,12.26
2022-09-16T20:36:41.487Z,12.24
2022-09-16T20:39:12.089Z,12.26
2022-09-16T20:41:43.168Z,12.16
2022-09-16T20:44:15.839Z,12.13
2022-09-16T20:47:12.174Z,12.15
2022-09-16T20:49:41.362Z,12.18
2022-09-16T20:52:10.698Z,12.17
2022-09-16T20:54:44.160Z,12.15
2022-09-16T20:57:17.903Z,12.11
2022-09-16T20:59:47.151Z,12.10
2022-09-16T21:02:20.218Z,12.08
2022-09-16T21:04:50.094Z,12.05
2022-09-16T21:07:19.078Z,12.02
2022-09-16T21:09:47.940Z,12.03
2022-09-16T21:12:17.785Z,11.97
2022-09-16T21:14:46.450Z,11.93
2022-09-16T21:17:19.913Z,11.97
2022-09-16T21:19:49.355Z,11.94
2022-09-16T21:22:18.237Z,12.02
2022-09-16T21:25:09.254Z,12.02
2022-09-16T21:27:40.375Z,12.01
2022-09-16T21:30:11.685Z,12.00
2022-09-16T21:32:44.121Z,11.99
2022-09-16T21:35:12.758Z,11.98
2022-09-16T21:37:41.686Z,11.96
2022-09-16T21:40:12.907Z,11.95
2022-09-16T21:42:41.780Z,11.94
2022-09-16T21:45:11.330Z,11.98
2022-09-16T21:47:47.325Z,11.90
2022-09-16T21:50:16.114Z,11.95
2022-09-16T21:52:45.469Z,11.98
2022-09-16T21:55:14.295Z,11.96
2022-09-16T22:01:53.986Z,11.95
2022-09-16T22:04:26.518Z,11.89
2022-09-16T22:06:56.084Z,11.84
2022-09-16T22:09:24.818Z,11.84
2022-09-16T22:11:53.734Z,11.85
2022-09-16T22:14:22.394Z,11.78
2022-09-16T22:16:51.123Z,11.80
2022-09-16T22:20:15.315Z,11.80
2022-09-16T22:22:44.069Z,11.76
2022-09-16T22:25:12.663Z,11.77
2022-09-16T22:27:41.264Z,11.76
2022-09-16T22:30:12.555Z,11.80
2022-09-16T22:32:41.436Z,11.77
2022-09-16T22:35:11.002Z,11.76
2022-09-16T22:37:41.070Z,11.69
2022-09-16T22:40:10.771Z,11.74
2022-09-16T22:42:39.601Z,11.76
2022-09-16T22:45:09.836Z,11.74
2022-09-16T22:47:39.920Z,11.75
2022-09-16T22:50:10.060Z,11.70
2022-09-16T22:52:40.845Z,11.71
2022-09-16T22:55:10.701Z,11.67
2022-09-16T22:57:39.774Z,11.72
2022-09-16T23:00:10.935Z,11.67
2022-09-16T23:02:40.142Z,11.70
2022-09-16T23:05:10.005Z,11.68
2022-09-16T23:07:40.117Z,11.59
2022-09-16T23:10:10.711Z,11.62
2022-09-16T23:12:40.802Z,11.57
2022-09-16T23:15:23.513Z,11.60
2022-09-16T23:17:52.125Z,11.62
2022-09-16T23:20:20.686Z,11.54
2022-09-16T23:22:50.964Z,11.50
2022-09-16T23:25:19.747Z,11.55
2022-09-16T23:27:48.519Z,11.60
2022-09-16T23:30:17.567Z,11.48
2022-09-16T23:32:46.612Z,11.52
2022-09-16T23:35:16.875Z,11.60
2022-09-16T23:37:46.674Z,11.61
2022-09-16T23:40:17.070Z,11.53
2022-09-16T23:42:45.821Z,11.53
2022-09-16T23:45:14.739Z,11.52
2022-09-16T23:47:45.205Z,11.58
2022-09-16T23:50:14.041Z,11.59
2022-09-16T23:52:42.824Z,11.61
2022-09-16T23:55:11.552Z,11.68
2022-09-16T23:57:42.564Z,11.74
